This is the latest recevied weather packets stored in our database for station/object W5GGH. If no packets are shown the sender has not sent any weather packets the latest 1 day(s).
| Time | Temp. | Humidity | Pressure | Rain* | Wind** | Luminosity | Snow |
|---|---|---|---|---|---|---|---|
| 1778100034 | 18.33° C | 65% | 1030.7 hPa | 0 mm | - | 365 W/m² | - |
| 1778096700 | 16.67° C | 70% | 1031.6 hPa | 0 mm | - | 461 W/m² | - |
| 1778096396 | 16.67° C | 69% | 1031.5 hPa | 0 mm | - | 678 W/m² | - |
| 1778095184 | 15.56° C | 73% | 1031.8 hPa | 0 mm | - | 276 W/m² | - |
| 1778094881 | 15° C | 73% | 1031.8 hPa | 0 mm | - | 303 W/m² | - |
| 1778094577 | 15° C | 73% | 1031.8 hPa | 0 mm | - | 295 W/m² | - |
| 1778093365 | 15° C | 76% | 1032.2 hPa | 0 mm | - | 208 W/m² | - |
| 1778093062 | 14.44° C | 75% | 1032.3 hPa | 0 mm | - | 163 W/m² | - |
| 1778091849 | 14.44° C | 75% | 1031.8 hPa | 0 mm | - | 188 W/m² | - |
| 1778090941 | 14.44° C | 77% | 1031 hPa | 0 mm | - | 277 W/m² | - |
| 1778090637 | 13.89° C | 79% | 1030.8 hPa | 0 mm | - | 246 W/m² | - |
| 1778090334 | 13.89° C | 78% | 1030.8 hPa | 0 mm | - | 249 W/m² | - |
| 1778089425 | 13.89° C | 81% | 1031 hPa | 0 mm | - | 312 W/m² | - |
| 1778088819 | 13.33° C | 83% | 1031.3 hPa | 0 mm | - | 235 W/m² | - |
| 1778088516 | 12.78° C | 83% | 1031.4 hPa | 0 mm | - | 210 W/m² | - |
| 1778088213 | 12.78° C | 83% | 1031.6 hPa | 0 mm | - | 135 W/m² | - |
| 1778086700 | 12.78° C | 84% | 1031.3 hPa | 0 mm | - | 159 W/m² | - |
| 1778086397 | 12.78° C | 85% | 1031.5 hPa | 0 mm | - | 125 W/m² | - |
| 1778085790 | 12.78° C | 86% | 1031.4 hPa | 0 mm | - | 107 W/m² | - |
| 1778085182 | 12.22° C | 87% | 1031.6 hPa | 0 mm | - | 115 W/m² | - |
| 1778084878 | 12.22° C | 87% | 1031.8 hPa | 0 mm | - | 92 W/m² | - |
| 1778081627 | 12.22° C | 88% | 1030.5 hPa | 0 mm | - | 323 W/m² | - |
| 1778081021 | 12.22° C | 90% | 1031.1 hPa | 0.51 mm | - | 271 W/m² | - |
| 1778080113 | 11.67° C | 90% | 1032.3 hPa | 0.51 mm | - | 121 W/m² | - |
| 1778078597 | 11.67° C | 84% | 1033.6 hPa | 3.05 mm | - | 14 W/m² | - |
* Rain latest hour (hover to see other rain measurements)
** Current wind speed in m/s (hover to see current wind gust speed)